Time;durP1;ratioP1;P1;durP2;ratioP2;P2;SDS_P1;SDS_P2;PMS_P1;PMS_P2;Temp;Humidity;BMP_temperature;BMP_pressure;BME280_temperature;BME280_humidity;BME280_pressure;Samples;Min_cycle;Max_cycle;Signal;HPM_P1;HPM_P2
2022/07/15 00:01:56;;;;;;;;;;;26.40;75.20;;;;;;5055072;28;19928;-54
2022/07/15 00:04:23;;;;;;;;;;;26.40;75.40;;;;;;5056925;28;19929;-59
2022/07/15 00:06:51;;;;;;;;;;;26.40;75.60;;;;;;5043675;28;19939;-56
2022/07/15 00:09:18;;;;;;;;;;;26.40;75.60;;;;;;5063929;28;19932;-56
2022/07/15 00:11:45;;;;;;;;;;;26.40;75.80;;;;;;5070312;28;19928;-57
2022/07/15 00:14:12;;;;;;;;;;;26.40;75.70;;;;;;5062611;28;20422;-57
2022/07/15 00:16:40;;;;;;;;;;;26.40;75.80;;;;;;5064905;28;19935;-53
2022/07/15 00:19:07;;;;;;;;;;;26.40;76.10;;;;;;5067576;28;19929;-56
2022/07/15 00:21:34;;;;;;;;;;;26.40;76.10;;;;;;5067229;28;19924;-54
2022/07/15 00:24:01;;;;;;;;;;;26.40;76.30;;;;;;5050086;28;19924;-55
2022/07/15 00:26:28;;;;;;;;;;;26.40;76.40;;;;;;5057498;28;19928;-53
2022/07/15 00:29:02;;;;;;;;;;;26.40;76.60;;;;;;5033854;28;20396;-56
2022/07/15 00:31:29;;;;;;;;;;;26.40;76.60;;;;;;5064364;28;19928;-55
2022/07/15 00:33:57;;;;;;;;;;;26.30;76.50;;;;;;5049030;28;20469;-58
2022/07/15 00:36:24;;;;;;;;;;;26.30;76.60;;;;;;5068012;28;19932;-59
2022/07/15 00:38:51;;;;;;;;;;;26.30;76.90;;;;;;5032528;28;19932;-54
2022/07/15 00:41:18;;;;;;;;;;;26.30;76.80;;;;;;5062733;28;19935;-53
2022/07/15 00:43:46;;;;;;;;;;;26.30;76.90;;;;;;5045049;28;20311;-54
2022/07/15 00:46:20;;;;;;;;;;;26.30;77.10;;;;;;5063217;28;19928;-53
2022/07/15 00:48:48;;;;;;;;;;;26.30;77.10;;;;;;5013708;28;20323;-56
2022/07/15 00:51:15;;;;;;;;;;;26.30;77.30;;;;;;5057395;28;19939;-53
2022/07/15 00:53:44;;;;;;;;;;;26.30;77.30;;;;;;5048652;28;19936;-56
2022/07/15 00:56:13;;;;;;;;;;;26.30;77.40;;;;;;5039414;28;20418;-55
2022/07/15 00:58:42;;;;;;;;;;;26.30;77.60;;;;;;5048513;28;19933;-51
2022/07/15 01:01:10;;;;;;;;;;;26.30;77.70;;;;;;5056283;28;19925;-55
2022/07/15 01:03:38;;;;;;;;;;;26.30;77.70;;;;;;5030391;28;19928;-52
2022/07/15 01:06:05;;;;;;;;;;;26.30;77.70;;;;;;5060534;28;20307;-58
2022/07/15 01:08:33;;;;;;;;;;;26.30;78.00;;;;;;5057328;28;19937;-59
2022/07/15 01:11:00;;;;;;;;;;;26.30;78.10;;;;;;5044211;28;19928;-54
2022/07/15 01:13:27;;;;;;;;;;;26.30;78.20;;;;;;5057754;28;20307;-53
2022/07/15 01:15:54;;;;;;;;;;;26.30;78.30;;;;;;5057643;28;19924;-51
2022/07/15 01:18:23;;;;;;;;;;;26.30;78.30;;;;;;5046360;28;20316;-52
2022/07/15 01:20:50;;;;;;;;;;;26.30;78.20;;;;;;5050855;28;19928;-52
2022/07/15 01:23:18;;;;;;;;;;;26.30;78.30;;;;;;5031349;28;20396;-56
2022/07/15 01:26:05;;;;;;;;;;;26.30;78.50;;;;;;5024817;28;19936;-55
2022/07/15 01:28:33;;;;;;;;;;;26.30;78.60;;;;;;5031151;28;19932;-55
2022/07/15 01:31:01;;;;;;;;;;;26.30;79.20;;;;;;5039041;28;19940;-53
2022/07/15 01:33:31;;;;;;;;;;;26.30;78.70;;;;;;5030163;28;19933;-57
2022/07/15 01:35:59;;;;;;;;;;;26.30;78.70;;;;;;5049260;28;19929;-56
2022/07/15 01:38:28;;;;;;;;;;;26.30;78.80;;;;;;5030651;28;19929;-54
2022/07/15 01:40:59;;;;;;;;;;;26.30;78.80;;;;;;5045273;28;20185;-55
2022/07/15 01:43:27;;;;;;;;;;;26.30;78.90;;;;;;5045490;28;19933;-56
2022/07/15 01:45:54;;;;;;;;;;;26.30;79.00;;;;;;5041315;28;19928;-51
2022/07/15 01:51:39;;;;;;;;;;;26.30;79.00;;;;;;5055157;28;20323;-56
2022/07/15 01:54:07;;;;;;;;;;;26.30;79.00;;;;;;5029945;28;19932;-55
2022/07/15 01:56:36;;;;;;;;;;;26.30;79.10;;;;;;5047077;28;19924;-52
2022/07/15 01:59:03;;;;;;;;;;;26.30;79.20;;;;;;5029605;28;19925;-54
2022/07/15 02:01:32;;;;;;;;;;;26.30;79.20;;;;;;5045169;28;19928;-54
2022/07/15 02:04:04;;;;;;;;;;;26.30;79.30;;;;;;5044789;28;19929;-56
2022/07/15 02:06:32;;;;;;;;;;;26.30;79.40;;;;;;5049841;28;19928;-51
2022/07/15 02:08:59;;;;;;;;;;;26.30;79.50;;;;;;5049085;28;19936;-54
2022/07/15 02:11:29;;;;;;;;;;;26.30;79.50;;;;;;5049023;28;19928;-56
2022/07/15 02:13:59;;;;;;;;;;;26.20;79.40;;;;;;5036196;28;19936;-58
2022/07/15 02:16:30;;;;;;;;;;;26.30;79.60;;;;;;5032494;28;19928;-53
2022/07/15 02:19:01;;;;;;;;;;;26.30;79.70;;;;;;5035332;28;19936;-54
2022/07/15 02:21:28;;;;;;;;;;;26.20;79.50;;;;;;5036600;28;19932;-55
2022/07/15 02:23:59;;;;;;;;;;;26.20;79.50;;;;;;5048266;28;19936;-54
2022/07/15 02:26:26;;;;;;;;;;;26.30;79.70;;;;;;5063006;28;19929;-59
2022/07/15 02:28:56;;;;;;;;;;;26.20;79.80;;;;;;5029776;28;19928;-54
2022/07/15 02:31:26;;;;;;;;;;;26.20;79.70;;;;;;5044054;28;19936;-56
2022/07/15 02:33:54;;;;;;;;;;;26.20;79.70;;;;;;5045993;28;19939;-57
2022/07/15 02:36:26;;;;;;;;;;;26.20;79.70;;;;;;5034679;28;19928;-51
2022/07/15 02:38:53;;;;;;;;;;;26.20;79.80;;;;;;5039414;28;19928;-52
2022/07/15 02:41:20;;;;;;;;;;;26.20;79.70;;;;;;5051626;28;19936;-53
2022/07/15 02:43:48;;;;;;;;;;;26.20;79.70;;;;;;5048674;28;19932;-55
2022/07/15 02:46:15;;;;;;;;;;;26.20;79.80;;;;;;5055765;28;20391;-51
2022/07/15 02:48:44;;;;;;;;;;;26.20;79.80;;;;;;5045615;28;19928;-54
2022/07/15 02:51:12;;;;;;;;;;;26.20;79.90;;;;;;5045366;28;19951;-58
2022/07/15 02:53:41;;;;;;;;;;;26.20;80.00;;;;;;5029794;28;19932;-58
2022/07/15 02:56:13;;;;;;;;;;;26.20;79.70;;;;;;5040989;28;20392;-57
2022/07/15 02:58:40;;;;;;;;;;;26.20;80.00;;;;;;5047877;28;19936;-58
2022/07/15 03:01:09;;;;;;;;;;;26.20;80.00;;;;;;5043235;28;19937;-57
2022/07/15 03:03:38;;;;;;;;;;;26.20;80.00;;;;;;5026487;28;19933;-55
2022/07/15 03:06:09;;;;;;;;;;;26.10;79.90;;;;;;5028584;28;19931;-58
2022/07/15 03:08:36;;;;;;;;;;;26.20;80.00;;;;;;5051961;28;20310;-53
2022/07/15 03:11:04;;;;;;;;;;;26.20;80.00;;;;;;5052626;28;19929;-55
2022/07/15 03:13:32;;;;;;;;;;;26.20;80.20;;;;;;5059119;28;19940;-52
2022/07/15 03:15:59;;;;;;;;;;;26.10;79.90;;;;;;5053925;28;19928;-57
2022/07/15 03:18:26;;;;;;;;;;;26.20;80.20;;;;;;5048521;28;19929;-51
2022/07/15 03:20:54;;;;;;;;;;;26.20;80.20;;;;;;5037411;28;19956;-55
2022/07/15 03:23:21;;;;;;;;;;;26.20;80.00;;;;;;5052997;28;19932;-55
2022/07/15 03:25:51;;;;;;;;;;;26.20;80.10;;;;;;5056470;28;19925;-54
2022/07/15 03:28:20;;;;;;;;;;;26.20;80.10;;;;;;5048670;28;19951;-52
2022/07/15 03:30:48;;;;;;;;;;;26.20;80.10;;;;;;5038431;28;19939;-54
2022/07/15 03:33:16;;;;;;;;;;;26.10;80.10;;;;;;5055194;28;19932;-55
2022/07/15 03:35:44;;;;;;;;;;;26.10;80.20;;;;;;5037652;28;19933;-55
2022/07/15 03:38:12;;;;;;;;;;;26.10;80.20;;;;;;5048269;28;19929;-56
2022/07/15 03:40:39;;;;;;;;;;;26.10;80.10;;;;;;5053080;28;20397;-55
2022/07/15 03:43:06;;;;;;;;;;;26.10;80.20;;;;;;5048681;28;19947;-54
2022/07/15 03:45:35;;;;;;;;;;;26.10;80.30;;;;;;5038507;28;19929;-54
2022/07/15 03:48:02;;;;;;;;;;;26.10;80.20;;;;;;5052566;28;19939;-57
2022/07/15 03:50:33;;;;;;;;;;;26.10;80.40;;;;;;5042034;28;19928;-57
2022/07/15 03:53:01;;;;;;;;;;;26.10;80.30;;;;;;5032214;28;19939;-56
2022/07/15 03:55:29;;;;;;;;;;;26.00;80.40;;;;;;5058685;28;19931;-55
2022/07/15 03:57:57;;;;;;;;;;;26.00;80.50;;;;;;5054723;28;19930;-53
2022/07/15 04:00:24;;;;;;;;;;;26.00;80.20;;;;;;5058068;28;19978;-53
2022/07/15 04:02:51;;;;;;;;;;;26.00;80.50;;;;;;5054562;28;19932;-56
2022/07/15 04:05:19;;;;;;;;;;;26.00;80.40;;;;;;5039814;28;19974;-51
2022/07/15 04:07:46;;;;;;;;;;;26.00;80.50;;;;;;5049942;28;20435;-52
2022/07/15 04:10:15;;;;;;;;;;;26.00;80.60;;;;;;5048426;28;19928;-51
2022/07/15 04:12:43;;;;;;;;;;;26.00;80.40;;;;;;5046006;28;19935;-55
2022/07/15 04:15:16;;;;;;;;;;;26.00;80.40;;;;;;5037550;28;20516;-55
2022/07/15 04:17:45;;;;;;;;;;;26.00;80.50;;;;;;5050493;28;19929;-58
2022/07/15 04:20:16;;;;;;;;;;;26.00;80.40;;;;;;5047248;28;19932;-56
2022/07/15 04:22:47;;;;;;;;;;;26.00;80.40;;;;;;5057502;28;20011;-55
2022/07/15 04:25:15;;;;;;;;;;;26.00;80.60;;;;;;5061420;28;19942;-55
2022/07/15 04:27:43;;;;;;;;;;;26.00;80.50;;;;;;5038003;28;19937;-57
2022/07/15 04:30:12;;;;;;;;;;;26.00;80.40;;;;;;5061377;28;19934;-55
2022/07/15 04:32:45;;;;;;;;;;;26.00;80.50;;;;;;5054597;28;19936;-55
2022/07/15 04:35:13;;;;;;;;;;;26.00;80.60;;;;;;5043290;28;19959;-53
2022/07/15 04:37:40;;;;;;;;;;;26.00;80.50;;;;;;5037549;28;19935;-53
2022/07/15 04:40:09;;;;;;;;;;;26.00;80.50;;;;;;5047307;28;19929;-56
2022/07/15 04:42:38;;;;;;;;;;;26.00;80.50;;;;;;5041151;28;19940;-58
2022/07/15 04:45:09;;;;;;;;;;;26.00;80.50;;;;;;5031422;28;19924;-54
2022/07/15 04:47:38;;;;;;;;;;;26.00;80.50;;;;;;5054078;28;19928;-56
2022/07/15 04:52:54;;;;;;;;;;;26.00;80.50;;;;;;5035459;28;20384;-54
2022/07/15 04:55:23;;;;;;;;;;;26.00;80.50;;;;;;5047909;28;19951;-56
2022/07/15 04:58:00;;;;;;;;;;;26.00;80.50;;;;;;5042005;28;19928;-55
2022/07/15 05:00:28;;;;;;;;;;;26.00;80.40;;;;;;5036907;28;19955;-55
2022/07/15 05:02:55;;;;;;;;;;;26.00;80.40;;;;;;5060333;28;19947;-56
2022/07/15 05:05:23;;;;;;;;;;;26.00;80.40;;;;;;5049171;28;19925;-54
2022/07/15 05:07:51;;;;;;;;;;;26.00;80.40;;;;;;5053316;28;19929;-56
2022/07/15 05:10:18;;;;;;;;;;;26.00;80.50;;;;;;5048455;28;19924;-55
2022/07/15 05:12:52;;;;;;;;;;;26.00;80.50;;;;;;5038110;28;20391;-58
2022/07/15 05:15:20;;;;;;;;;;;26.00;80.60;;;;;;5051440;28;19951;-58
2022/07/15 05:17:47;;;;;;;;;;;26.00;80.60;;;;;;5049967;28;19929;-55
2022/07/15 05:20:19;;;;;;;;;;;26.00;80.60;;;;;;5053593;28;20432;-52
2022/07/15 05:22:49;;;;;;;;;;;26.00;80.60;;;;;;5065473;28;19931;-55
2022/07/15 05:25:18;;;;;;;;;;;26.00;80.70;;;;;;5046391;28;19939;-57
2022/07/15 05:27:45;;;;;;;;;;;26.00;80.70;;;;;;5048681;28;19939;-57
2022/07/15 05:30:17;;;;;;;;;;;26.00;80.70;;;;;;5048594;28;20387;-56
2022/07/15 05:32:45;;;;;;;;;;;26.00;80.60;;;;;;5055194;28;19929;-55
2022/07/15 05:35:19;;;;;;;;;;;26.00;80.60;;;;;;5046605;28;19925;-58
2022/07/15 05:37:46;;;;;;;;;;;26.00;80.60;;;;;;5057980;28;20020;-55
2022/07/15 05:40:20;;;;;;;;;;;26.00;80.50;;;;;;5048448;28;19928;-56
2022/07/15 05:42:53;;;;;;;;;;;26.00;80.60;;;;;;5042830;28;19948;-57
2022/07/15 05:45:20;;;;;;;;;;;26.00;80.70;;;;;;5053006;28;20249;-57
2022/07/15 05:47:55;;;;;;;;;;;26.00;80.30;;;;;;5048780;28;19935;-59
2022/07/15 05:50:26;;;;;;;;;;;25.90;79.70;;;;;;5065176;28;19951;-56
2022/07/15 05:52:57;;;;;;;;;;;25.90;78.80;;;;;;5042189;28;19955;-54
2022/07/15 05:55:24;;;;;;;;;;;25.90;78.00;;;;;;5046393;28;20304;-54
2022/07/15 05:57:51;;;;;;;;;;;25.80;77.70;;;;;;5043965;28;19931;-58
2022/07/15 06:00:24;;;;;;;;;;;25.90;77.50;;;;;;5041460;28;19931;-56
2022/07/15 06:02:51;;;;;;;;;;;25.80;77.20;;;;;;5051846;28;20340;-56
2022/07/15 06:05:22;;;;;;;;;;;25.80;76.80;;;;;;5064259;28;20262;-57
2022/07/15 06:07:54;;;;;;;;;;;25.80;76.70;;;;;;5055354;28;19924;-58
2022/07/15 06:10:27;;;;;;;;;;;25.90;76.70;;;;;;5042159;28;20320;-58
2022/07/15 06:12:56;;;;;;;;;;;25.90;76.70;;;;;;5049428;28;20311;-57
2022/07/15 06:15:23;;;;;;;;;;;25.90;79.70;;;;;;5033846;28;20434;-58
2022/07/15 06:17:51;;;;;;;;;;;26.00;79.70;;;;;;5030447;28;19935;-57
2022/07/15 06:20:22;;;;;;;;;;;26.00;78.10;;;;;;5019244;28;19939;-55
2022/07/15 06:22:49;;;;;;;;;;;26.00;77.50;;;;;;5044148;28;19931;-59
2022/07/15 06:25:18;;;;;;;;;;;26.00;77.80;;;;;;5045739;28;20372;-54
2022/07/15 06:27:48;;;;;;;;;;;26.00;77.40;;;;;;5039849;28;19935;-60
2022/07/15 06:30:15;;;;;;;;;;;25.90;77.30;;;;;;5031524;28;19929;-54
2022/07/15 06:32:43;;;;;;;;;;;26.00;77.40;;;;;;5056058;28;19936;-55
2022/07/15 06:35:11;;;;;;;;;;;25.90;77.30;;;;;;5063166;28;20342;-51
2022/07/15 06:37:39;;;;;;;;;;;26.00;77.30;;;;;;5061905;28;19928;-59
2022/07/15 06:40:07;;;;;;;;;;;25.90;77.20;;;;;;5049892;28;19932;-54
2022/07/15 06:42:34;;;;;;;;;;;25.90;77.60;;;;;;5048691;28;19929;-56
2022/07/15 06:45:05;;;;;;;;;;;25.90;77.90;;;;;;5045357;28;19928;-57
2022/07/15 06:47:32;;;;;;;;;;;25.80;78.00;;;;;;5059060;28;19935;-62
2022/07/15 06:50:00;;;;;;;;;;;25.80;77.50;;;;;;5046476;28;19954;-53
2022/07/15 06:52:27;;;;;;;;;;;25.80;77.00;;;;;;5053093;28;20533;-57
2022/07/15 06:54:55;;;;;;;;;;;25.80;76.80;;;;;;5045391;28;19929;-54
2022/07/15 06:57:23;;;;;;;;;;;25.70;76.50;;;;;;5042702;28;19932;-54
2022/07/15 06:59:53;;;;;;;;;;;25.70;76.30;;;;;;5040810;28;19936;-55
2022/07/15 07:02:22;;;;;;;;;;;25.70;76.20;;;;;;5046169;28;20294;-54
2022/07/15 07:04:50;;;;;;;;;;;25.70;76.60;;;;;;5046826;28;19992;-54
2022/07/15 07:07:18;;;;;;;;;;;25.70;76.30;;;;;;5042677;28;19932;-58
2022/07/15 07:09:45;;;;;;;;;;;25.70;76.40;;;;;;5057858;28;19928;-58
2022/07/15 07:12:13;;;;;;;;;;;25.70;76.60;;;;;;5060537;28;19984;-59
2022/07/15 07:14:40;;;;;;;;;;;25.70;77.00;;;;;;5062397;28;19944;-55
2022/07/15 07:17:07;;;;;;;;;;;25.70;76.90;;;;;;5055708;28;20328;-55
2022/07/15 07:19:34;;;;;;;;;;;25.70;77.20;;;;;;5055691;28;19935;-52
2022/07/15 07:22:01;;;;;;;;;;;25.70;77.40;;;;;;5063315;28;19933;-55
2022/07/15 07:24:28;;;;;;;;;;;25.70;78.10;;;;;;5048481;28;20470;-56
2022/07/15 07:26:56;;;;;;;;;;;25.70;77.60;;;;;;5055770;28;20404;-55
2022/07/15 07:29:26;;;;;;;;;;;25.70;77.70;;;;;;5038327;28;19929;-53
2022/07/15 07:31:54;;;;;;;;;;;25.60;77.20;;;;;;5060694;28;19932;-59
2022/07/15 07:34:21;;;;;;;;;;;25.60;77.00;;;;;;5058546;28;19928;-57
2022/07/15 07:36:48;;;;;;;;;;;25.60;76.80;;;;;;5063834;28;20384;-54
2022/07/15 07:39:16;;;;;;;;;;;25.60;76.70;;;;;;5060521;28;19932;-54
2022/07/15 07:41:43;;;;;;;;;;;25.60;76.50;;;;;;5060206;28;19928;-52
2022/07/15 07:44:10;;;;;;;;;;;25.70;76.60;;;;;;5060125;28;20494;-55
2022/07/15 07:46:37;;;;;;;;;;;25.70;77.00;;;;;;5047884;28;19929;-53
2022/07/15 07:49:05;;;;;;;;;;;25.70;77.00;;;;;;5054179;28;19948;-54
2022/07/15 07:51:52;;;;;;;;;;;25.70;76.60;;;;;;5058356;28;19928;-58
2022/07/15 07:54:19;;;;;;;;;;;25.70;76.60;;;;;;5063423;28;20495;-55
2022/07/15 07:56:46;;;;;;;;;;;25.70;76.50;;;;;;5047422;28;19944;-55
2022/07/15 07:59:14;;;;;;;;;;;25.80;76.60;;;;;;5066793;28;20392;-50
2022/07/15 08:01:41;;;;;;;;;;;25.80;78.00;;;;;;5046762;28;19944;-53
2022/07/15 08:04:08;;;;;;;;;;;25.80;78.80;;;;;;5065127;28;19928;-54
2022/07/15 08:06:38;;;;;;;;;;;25.80;79.00;;;;;;5067293;28;20047;-48
2022/07/15 08:09:05;;;;;;;;;;;25.80;79.70;;;;;;5061856;28;19939;-54
2022/07/15 08:11:32;;;;;;;;;;;25.80;80.20;;;;;;5064961;28;19929;-53
2022/07/15 08:14:00;;;;;;;;;;;25.90;80.50;;;;;;5037169;28;19925;-57
2022/07/15 08:16:27;;;;;;;;;;;25.80;80.60;;;;;;5053139;28;19925;-53
2022/07/15 08:18:54;;;;;;;;;;;25.90;81.30;;;;;;5063550;28;19928;-51
2022/07/15 08:21:22;;;;;;;;;;;25.90;80.80;;;;;;5066351;28;19959;-57
2022/07/15 08:23:49;;;;;;;;;;;25.90;80.00;;;;;;5068028;28;19936;-51
2022/07/15 08:26:23;;;;;;;;;;;25.90;79.40;;;;;;5030726;28;19944;-54
2022/07/15 08:28:51;;;;;;;;;;;25.80;79.30;;;;;;5059489;28;20016;-53
2022/07/15 08:31:31;;;;;;;;;;;25.90;81.10;;;;;;5066304;28;19936;-57
2022/07/15 08:33:58;;;;;;;;;;;25.90;80.60;;;;;;5054673;28;19973;-59
2022/07/15 08:36:26;;;;;;;;;;;25.80;79.70;;;;;;5038701;28;19935;-55
2022/07/15 08:38:54;;;;;;;;;;;25.80;79.40;;;;;;5061401;28;19928;-53
2022/07/15 08:41:21;;;;;;;;;;;25.80;78.90;;;;;;5066732;28;20435;-58
2022/07/15 08:43:48;;;;;;;;;;;25.80;79.00;;;;;;5062905;28;20398;-55
2022/07/15 08:46:16;;;;;;;;;;;25.70;78.40;;;;;;5063057;28;19943;-52
2022/07/15 08:48:48;;;;;;;;;;;25.70;78.40;;;;;;5062532;28;19956;-56
2022/07/15 08:51:18;;;;;;;;;;;25.70;78.30;;;;;;5061350;28;19933;-57
2022/07/15 08:53:45;;;;;;;;;;;25.70;78.80;;;;;;5062648;28;19939;-53
2022/07/15 08:56:12;;;;;;;;;;;25.70;78.50;;;;;;5061194;28;19935;-56
2022/07/15 08:58:39;;;;;;;;;;;25.80;78.20;;;;;;5059919;28;19924;-53
2022/07/15 09:01:26;;;;;;;;;;;25.80;78.00;;;;;;5054063;28;19932;-57
2022/07/15 09:03:53;;;;;;;;;;;25.70;77.50;;;;;;5027713;28;19928;-55
2022/07/15 09:06:32;;;;;;;;;;;25.70;77.60;;;;;;5065456;28;20030;-59
2022/07/15 09:09:19;;;;;;;;;;;25.70;77.80;;;;;;5066652;28;19928;-55
2022/07/15 09:11:53;;;;;;;;;;;25.70;76.40;;;;;;5063529;28;19937;-57
2022/07/15 09:14:29;;;;;;;;;;;25.60;76.20;;;;;;5064441;28;19933;-57
2022/07/15 09:17:05;;;;;;;;;;;25.60;75.90;;;;;;5061436;28;19940;-56
2022/07/15 09:19:52;;;;;;;;;;;25.60;75.50;;;;;;5062136;28;20339;-55
2022/07/15 09:22:21;;;;;;;;;;;25.60;75.30;;;;;;5063867;28;20000;-55
2022/07/15 09:25:08;;;;;;;;;;;25.60;75.30;;;;;;5047805;28;19932;-53
2022/07/15 09:27:37;;;;;;;;;;;25.60;74.80;;;;;;5056578;28;20485;-55
2022/07/15 09:36:03;;;;;;;;;;;25.60;74.80;;;;;;5062920;28;20323;-58
2022/07/15 09:38:32;;;;;;;;;;;25.60;74.90;;;;;;5063780;28;20675;-59
2022/07/15 09:41:01;;;;;;;;;;;25.60;75.00;;;;;;5045199;28;19925;-58
2022/07/15 09:43:28;;;;;;;;;;;25.60;74.80;;;;;;5064903;28;19935;-59
2022/07/15 09:45:59;;;;;;;;;;;25.60;74.80;;;;;;5060552;28;20498;-58
2022/07/15 09:48:31;;;;;;;;;;;25.70;76.20;;;;;;5062336;28;20323;-61
2022/07/15 09:50:59;;;;;;;;;;;25.70;76.20;;;;;;5060098;28;19924;-55
2022/07/15 09:53:27;;;;;;;;;;;25.70;75.70;;;;;;5062858;28;19936;-58
2022/07/15 09:55:55;;;;;;;;;;;25.70;75.70;;;;;;5065960;28;19932;-58
2022/07/15 09:58:22;;;;;;;;;;;25.70;76.20;;;;;;5063763;28;19928;-63
2022/07/15 10:00:52;;;;;;;;;;;25.80;76.70;;;;;;5065267;28;20418;-55
2022/07/15 10:03:22;;;;;;;;;;;25.80;77.00;;;;;;5062174;28;20475;-59
2022/07/15 10:05:56;;;;;;;;;;;25.80;77.10;;;;;;5056111;28;19961;-57
2022/07/15 10:08:24;;;;;;;;;;;25.80;77.10;;;;;;5061550;28;19935;-58
2022/07/15 10:10:56;;;;;;;;;;;25.80;77.40;;;;;;5045305;28;19963;-58
2022/07/15 10:13:23;;;;;;;;;;;25.80;77.80;;;;;;5060994;28;20391;-57
2022/07/15 10:15:50;;;;;;;;;;;25.90;78.10;;;;;;5056602;28;19933;-58
2022/07/15 10:18:36;;;;;;;;;;;25.90;78.30;;;;;;5060187;28;19924;-56
2022/07/15 10:21:19;;;;;;;;;;;26.00;78.80;;;;;;5056736;28;19931;-52
2022/07/15 10:23:46;;;;;;;;;;;26.00;78.80;;;;;;5050224;28;19933;-55
2022/07/15 10:26:25;;;;;;;;;;;26.00;79.10;;;;;;5058206;28;19999;-60
2022/07/15 10:28:58;;;;;;;;;;;26.00;79.40;;;;;;5038950;28;19933;-56
2022/07/15 10:31:26;;;;;;;;;;;26.00;79.40;;;;;;5058576;28;19929;-58
2022/07/15 10:34:03;;;;;;;;;;;25.90;79.40;;;;;;5062209;28;19931;-60
2022/07/15 10:36:39;;;;;;;;;;;25.90;79.30;;;;;;5064216;28;19928;-59
2022/07/15 10:39:08;;;;;;;;;;;25.90;79.30;;;;;;5064590;28;19935;-60
2022/07/15 10:41:47;;;;;;;;;;;25.80;79.30;;;;;;5062878;28;20042;-58
2022/07/15 10:44:14;;;;;;;;;;;25.90;79.40;;;;;;5066294;28;19929;-60
2022/07/15 10:46:41;;;;;;;;;;;25.80;79.40;;;;;;5055518;28;20269;-58
2022/07/15 10:49:09;;;;;;;;;;;25.90;79.50;;;;;;5064344;28;19944;-57
2022/07/15 10:51:36;;;;;;;;;;;25.90;79.60;;;;;;5061817;28;19959;-59
2022/07/15 10:54:04;;;;;;;;;;;25.90;79.80;;;;;;5058730;28;19947;-56
2022/07/15 10:56:34;;;;;;;;;;;25.90;80.00;;;;;;5059355;28;20152;-58
2022/07/15 10:59:13;;;;;;;;;;;25.90;80.50;;;;;;5061148;28;20424;-54
2022/07/15 11:01:47;;;;;;;;;;;26.00;81.40;;;;;;5058311;28;19928;-57
2022/07/15 11:04:14;;;;;;;;;;;26.00;81.60;;;;;;5050198;28;19929;-58
2022/07/15 11:07:00;;;;;;;;;;;26.00;82.10;;;;;;5057390;28;19929;-58
2022/07/15 11:09:48;;;;;;;;;;;26.00;82.20;;;;;;5028333;28;20335;-57
2022/07/15 11:12:27;;;;;;;;;;;26.00;82.10;;;;;;5062576;28;19935;-60
2022/07/15 11:15:05;;;;;;;;;;;26.00;82.10;;;;;;5045742;28;19928;-59
2022/07/15 11:17:33;;;;;;;;;;;26.00;81.80;;;;;;5062454;28;19940;-59
2022/07/15 11:20:08;;;;;;;;;;;26.00;81.60;;;;;;5060687;28;19932;-59
2022/07/15 11:22:36;;;;;;;;;;;26.00;81.70;;;;;;5057737;28;20384;-61
2022/07/15 11:25:06;;;;;;;;;;;26.00;81.70;;;;;;5057511;28;19941;-58
2022/07/15 11:27:33;;;;;;;;;;;26.00;81.70;;;;;;5066054;28;19928;-57
2022/07/15 11:30:02;;;;;;;;;;;26.00;82.30;;;;;;5068023;28;19928;-58
2022/07/15 11:32:30;;;;;;;;;;;26.00;82.20;;;;;;5064018;28;19929;-55
2022/07/15 11:34:59;;;;;;;;;;;25.90;81.50;;;;;;5063715;28;19928;-59
2022/07/15 11:37:30;;;;;;;;;;;26.00;80.60;;;;;;5052980;28;19928;-58
2022/07/15 11:40:06;;;;;;;;;;;26.00;80.30;;;;;;5051760;28;19924;-58
2022/07/15 11:45:51;;;;;;;;;;;26.00;80.10;;;;;;5065635;28;19932;-58
2022/07/15 11:48:18;;;;;;;;;;;26.00;81.00;;;;;;5021446;28;19947;-58
2022/07/15 11:50:54;;;;;;;;;;;26.10;82.40;;;;;;5064778;28;19943;-60
2022/07/15 11:53:22;;;;;;;;;;;26.20;82.60;;;;;;5066496;28;19935;-64
2022/07/15 11:55:57;;;;;;;;;;;26.30;83.50;;;;;;5046335;28;19932;-60
2022/07/15 11:58:34;;;;;;;;;;;26.30;83.70;;;;;;5060155;28;20315;-60
2022/07/15 12:01:07;;;;;;;;;;;26.30;83.90;;;;;;5057409;28;19928;-61
2022/07/15 12:03:40;;;;;;;;;;;26.40;83.70;;;;;;5053794;28;19928;-58
2022/07/15 12:06:07;;;;;;;;;;;26.30;83.20;;;;;;5060838;28;19933;-61
2022/07/15 12:08:34;;;;;;;;;;;26.30;83.10;;;;;;5060975;28;20015;-61
2022/07/15 12:11:02;;;;;;;;;;;26.30;82.30;;;;;;5068031;28;19928;-59
2022/07/15 12:13:39;;;;;;;;;;;26.30;82.30;;;;;;5062022;28;19932;-64
2022/07/15 12:16:07;;;;;;;;;;;26.30;82.20;;;;;;5065640;28;19936;-60
2022/07/15 12:18:39;;;;;;;;;;;26.30;81.00;;;;;;5066293;28;19929;-62
2022/07/15 12:21:07;;;;;;;;;;;26.30;81.20;;;;;;5065862;28;20319;-61
2022/07/15 12:23:34;;;;;;;;;;;26.30;80.80;;;;;;5062358;28;19931;-54
2022/07/15 12:26:08;;;;;;;;;;;26.30;81.00;;;;;;5050531;28;20307;-57
2022/07/15 12:28:36;;;;;;;;;;;26.20;80.50;;;;;;5066233;28;19925;-53
2022/07/15 12:31:04;;;;;;;;;;;26.20;80.40;;;;;;5066640;28;19935;-56
2022/07/15 12:33:35;;;;;;;;;;;26.20;80.20;;;;;;5062263;28;19933;-54
2022/07/15 12:36:12;;;;;;;;;;;26.20;79.90;;;;;;5063518;28;19932;-57
2022/07/15 12:38:40;;;;;;;;;;;26.20;79.50;;;;;;5059641;28;19935;-56
2022/07/15 12:41:08;;;;;;;;;;;26.20;79.30;;;;;;5064994;28;19929;-57
2022/07/15 12:43:55;;;;;;;;;;;26.20;79.00;;;;;;5056728;28;19939;-56
2022/07/15 12:46:40;;;;;;;;;;;26.20;78.70;;;;;;5064123;28;19928;-55
2022/07/15 12:49:08;;;;;;;;;;;26.20;78.10;;;;;;5065265;28;19932;-54
2022/07/15 12:51:35;;;;;;;;;;;26.10;77.40;;;;;;5063705;28;19928;-54
2022/07/15 12:54:03;;;;;;;;;;;26.10;76.70;;;;;;5060850;28;19973;-58
2022/07/15 12:56:49;;;;;;;;;;;26.10;76.50;;;;;;5060754;28;20247;-52
2022/07/15 12:59:16;;;;;;;;;;;26.10;75.90;;;;;;5060569;28;19925;-55
2022/07/15 13:01:44;;;;;;;;;;;26.20;75.70;;;;;;5060658;28;19936;-55
2022/07/15 13:04:11;;;;;;;;;;;26.20;75.60;;;;;;5055167;28;19932;-58
2022/07/15 13:06:39;;;;;;;;;;;26.20;75.30;;;;;;5052651;28;19924;-56
2022/07/15 13:09:06;;;;;;;;;;;26.20;75.10;;;;;;5063901;28;19932;-56
2022/07/15 13:11:33;;;;;;;;;;;26.20;74.70;;;;;;5046113;28;19925;-55
2022/07/15 13:14:00;;;;;;;;;;;26.20;74.30;;;;;;5064283;28;19935;-55
2022/07/15 13:16:27;;;;;;;;;;;26.30;74.40;;;;;;5057685;28;19936;-57
2022/07/15 13:18:54;;;;;;;;;;;26.20;74.20;;;;;;5064269;28;19928;-61
2022/07/15 13:21:22;;;;;;;;;;;26.30;74.20;;;;;;5044683;28;19936;-55
2022/07/15 13:23:49;;;;;;;;;;;26.30;74.10;;;;;;5061851;28;19929;-56
2022/07/15 13:26:17;;;;;;;;;;;26.30;74.50;;;;;;5056385;28;20439;-50
2022/07/15 13:28:44;;;;;;;;;;;26.20;74.60;;;;;;5063552;28;20400;-55
2022/07/15 13:31:11;;;;;;;;;;;26.30;74.80;;;;;;5065757;28;19928;-57
2022/07/15 13:33:38;;;;;;;;;;;26.30;74.90;;;;;;5047390;28;19934;-51
2022/07/15 13:36:15;;;;;;;;;;;26.20;74.70;;;;;;5062608;28;19935;-56
2022/07/15 13:38:43;;;;;;;;;;;26.20;74.50;;;;;;5065279;28;19925;-52
2022/07/15 13:41:10;;;;;;;;;;;26.20;74.60;;;;;;5065070;28;20387;-55
2022/07/15 13:43:37;;;;;;;;;;;26.20;74.20;;;;;;5066219;28;19939;-58
2022/07/15 13:46:05;;;;;;;;;;;26.20;74.10;;;;;;5062008;28;19931;-52
2022/07/15 13:48:32;;;;;;;;;;;26.30;74.00;;;;;;5061161;28;19928;-54
2022/07/15 13:53:45;;;;;;;;;;;26.30;74.40;;;;;;5060370;28;19932;-56
2022/07/15 13:56:13;;;;;;;;;;;26.40;74.70;;;;;;5063937;28;19951;-55
2022/07/15 13:58:40;;;;;;;;;;;26.40;74.60;;;;;;5064199;28;19928;-50
2022/07/15 14:01:07;;;;;;;;;;;26.50;74.60;;;;;;5061988;28;20292;-56
2022/07/15 14:03:35;;;;;;;;;;;26.50;74.40;;;;;;5064836;28;19928;-56
2022/07/15 14:06:09;;;;;;;;;;;26.60;74.60;;;;;;5064293;28;19924;-59
2022/07/15 14:08:37;;;;;;;;;;;26.60;74.40;;;;;;5065236;28;20390;-56
2022/07/15 14:11:04;;;;;;;;;;;26.60;74.40;;;;;;5057888;28;19955;-59
2022/07/15 14:13:31;;;;;;;;;;;26.50;74.10;;;;;;5065040;28;19924;-58
2022/07/15 14:15:59;;;;;;;;;;;26.50;73.80;;;;;;5045127;28;19929;-58
2022/07/15 14:21:14;;;;;;;;;;;26.60;73.10;;;;;;5065216;28;19924;-56
2022/07/15 14:23:42;;;;;;;;;;;26.70;72.30;;;;;;5060650;28;20311;-58
2022/07/15 14:26:11;;;;;;;;;;;26.70;71.80;;;;;;5058009;28;19936;-58
2022/07/15 14:28:39;;;;;;;;;;;26.80;71.70;;;;;;5059105;28;19962;-56
2022/07/15 14:31:07;;;;;;;;;;;26.80;71.40;;;;;;5049471;28;19925;-52
2022/07/15 14:33:34;;;;;;;;;;;26.80;71.30;;;;;;5055878;28;20249;-48
2022/07/15 14:36:02;;;;;;;;;;;26.90;71.00;;;;;;5063130;28;20308;-57
2022/07/15 14:38:30;;;;;;;;;;;26.90;71.00;;;;;;5063074;28;20376;-55
2022/07/15 14:40:58;;;;;;;;;;;27.00;71.70;;;;;;5062721;28;20011;-58
2022/07/15 14:43:25;;;;;;;;;;;27.00;72.20;;;;;;5058410;28;19928;-54
2022/07/15 14:45:52;;;;;;;;;;;27.10;71.60;;;;;;5064677;28;19929;-58
2022/07/15 14:48:19;;;;;;;;;;;27.10;71.30;;;;;;5063032;28;19955;-57
2022/07/15 14:50:47;;;;;;;;;;;27.20;71.30;;;;;;5062406;28;19935;-56